Nearby METAR Reports

 

KSJC - San Jose, California, USA
Distance from station: NE 14km
Updated: 21/11/2019 02:53
Clear
Clear
 Wind from N
Wind: N 6 km/h
Temperature: 16°C
Dew Point: 3°C
Humidity: 42%
Barometer: 1001.4 hPa
Clouds: Clear
Visibility: 16 km
2019/11/21 02:53 KSJC 210253Z 01003KT 10SM CLR 16/03 A2957 RMK AO2 SLP012 T01610028 53022
KNUQ - Moffett Nas/Mtn, California, USA
Distance from station: N 14km
Updated: 21/11/2019 02:56

 
Barometer: 1001.4 hPa
2019/11/21 02:56 KNUQ 210256Z AUTO A2957 RMK AO2 SLP017 52017 PWINO $
 
KPAO - Palo Alto, California, USA
Distance from station: NNW 23km
Updated: 21/11/2019 02:47
Clear
Clear
 Wind from varies
Wind: varies 6 km/h
Temperature: 13°C
Dew Point: 3°C
Humidity: 51%
Barometer: 1001.4 hPa
Clouds: Clear
Visibility: 16 km
2019/11/21 02:47 KPAO 210247Z VRB03KT 10SM SKC 13/03 A2957
KRHV - San Jose/Reid, California, USA
Distance from station: ENE 19km
Updated: 20/11/2019 23:47
NOT Current
Partly cloudy
Partly cloudy
 Wind from NW
Wind: NW 15 km/h
Temperature: 20°C
Dew Point: 1°C
Humidity: 28%
Barometer: 999 hPa
Clouds: Partly cloudy
Visibility: 16 km
Cloud details: Partly cloudy 3048 m
2019/11/20 23:47 KRHV 202347Z 32008KT 10SM SCT100 20/01 A2950
 
KOAK - Oakland, California, USA
Distance from station: NNW 50km
Updated: 21/11/2019 02:53
Clear
Clear
 Wind from NNW
Wind: NNW 9 km/h
Temperature: 17°C
Dew Point: 1°C
Humidity: 34%
Barometer: 1001.4 hPa
Clouds: Clear
Visibility: 16 km
2019/11/21 02:53 KOAK 210253Z 34005KT 10SM CLR 17/01 A2957 RMK AO2 SLP014 T01670006 51021
KSQL - San Carlos Airpo, California, USA
Distance from station: NW 34km
Updated: 21/11/2019 02:47
Few Clouds
Few Clouds
 Wind from W
Wind: W 9 km/h
Temperature: 17°C
Dew Point: 1°C
Humidity: 34%
Barometer: 1001.4 hPa
Clouds: Few Clouds
Visibility: 16 km
Cloud details: Few Clouds 3658 m
2019/11/21 02:47 KSQL 210247Z 27005KT 10SM FEW120 17/01 A2957
 
KSFO - San Francisco, California, USA
Distance from station: NW 49km
Updated: 21/11/2019 02:56
Clear
Clear
 Wind from NNW
Wind: NNW 11 km/h
Temperature: 16°C
Dew Point: 3°C
Humidity: 42%
Barometer: 1001.4 hPa
Clouds: Clear
Visibility: 16 km
2019/11/21 02:56 KSFO 210256Z 33006KT 10SM CLR 16/03 A2957 RMK AO2 SLP013 T01610033 53018
KE16 - San Martin, California, USA
Distance from station: ESE 43km
Updated: 14/11/2019 09:35
NOT Current
Overcast
Overcast
 Wind from SE
Wind: SE 11 km/h
Temperature: 12°C
Dew Point: 10°C
Humidity: 88%
Barometer: 1017.6 hPa
Clouds: Overcast
Visibility: 16 km
Cloud details: Overcast 427 m
2019/11/14 09:35 KE16 140935Z AUTO 13006KT 10SM OVC014 12/10 A3005 RMK AO2
 
KWVI - Watsonville, California, USA
Distance from station: SSE 44km
Updated: 21/11/2019 02:53
Clear
Clear
 Wind from N
Wind: N 6 km/h
Temperature: 12°C
Dew Point: 7°C
Humidity: 72%
Barometer: 1002.4 hPa
Clouds: Clear
Visibility: 16 km
2019/11/21 02:53 KWVI 210253Z AUTO 36003KT 10SM CLR 12/07 A2960 RMK AO2 SLP021 T01170072 53023
KHAF - Half Moon Bay, California, USA
Distance from station: WNW 50km
Updated: 21/11/2019 03:15
Mostly cloudy
Mostly cloudy
 Wind from calm
Wind: Calm
Temperature: 8°C
Dew Point: 4°C
Humidity: 76%
Barometer: 1002.4 hPa
Clouds: Mostly cloudy
Visibility: 16 km
Cloud details: Mostly cloudy 91 m
2019/11/21 03:15 KHAF 210315Z AUTO 00000KT 10SM BKN003 08/04 A2960 RMK AO2
 
KHWD - Hayward, California, USA
Distance from station: N 44km
Updated: 21/11/2019 02:54
Clear
Clear
 Wind from calm
Wind: Calm
Temperature: 13°C
Dew Point: 8°C
Humidity: 72%
Barometer: 1001.4 hPa
Clouds: Clear
Visibility: 16 km
2019/11/21 02:54 KHWD 210254Z 00000KT 10SM CLR 13/08 A2957 RMK AO2 SLP021 T01280078 53019
KLVK - Livermore, California, USA
Distance from station: NNE 51km
Updated: 21/11/2019 02:53
Clear
Clear
 Wind from N
Wind: N 11 km/h
Temperature: 16°C
Dew Point: -2°C
Humidity: 29%
Barometer: 1001 hPa
Clouds: Clear
Visibility: 16 km
2019/11/21 02:53 KLVK 210253Z 35006KT 10SM CLR 16/M02 A2956 RMK AO2 SLP007 T01611022 51019